sensor_id;sensor_type;location;lat;lon;timestamp;pressure;altitude;pressure_sealevel;temperature;humidity
44825;BME280;30542;47.928;2.138;2023-12-04T00:03:58;99724.06;;;19.92;32.02
44825;BME280;30542;47.928;2.138;2023-12-04T00:08:58;99716.09;;;19.86;32.24
44825;BME280;30542;47.928;2.138;2023-12-04T00:13:59;99693.69;;;19.82;32.17
44825;BME280;30542;47.928;2.138;2023-12-04T00:18:59;99677.66;;;19.77;32.77
44825;BME280;30542;47.928;2.138;2023-12-04T00:24:00;99672.34;;;19.72;32.44
44825;BME280;30542;47.928;2.138;2023-12-04T00:29:00;99649.16;;;19.68;32.22
44825;BME280;30542;47.928;2.138;2023-12-04T00:34:00;99635.53;;;19.64;32.31
44825;BME280;30542;47.928;2.138;2023-12-04T00:39:01;99624.06;;;19.58;32.72
44825;BME280;30542;47.928;2.138;2023-12-04T00:44:01;99603.78;;;19.52;32.38
44825;BME280;30542;47.928;2.138;2023-12-04T00:49:01;99592.59;;;19.50;32.53
44825;BME280;30542;47.928;2.138;2023-12-04T00:54:02;99569.41;;;19.46;32.40
44825;BME280;30542;47.928;2.138;2023-12-04T00:59:02;99584.38;;;19.42;32.42
44825;BME280;30542;47.928;2.138;2023-12-04T01:04:04;99578.00;;;19.37;32.52
44825;BME280;30542;47.928;2.138;2023-12-04T01:09:04;99571.63;;;19.33;32.32
44825;BME280;30542;47.928;2.138;2023-12-04T01:14:04;99551.31;;;19.32;32.74
44825;BME280;30542;47.928;2.138;2023-12-04T01:19:05;99535.59;;;19.31;32.31
44825;BME280;30542;47.928;2.138;2023-12-04T01:24:05;99548.66;;;19.32;32.46
44825;BME280;30542;47.928;2.138;2023-12-04T01:29:06;99549.72;;;19.31;32.46
44825;BME280;30542;47.928;2.138;2023-12-04T01:34:06;99536.38;;;19.31;32.81
44825;BME280;30542;47.928;2.138;2023-12-04T01:39:07;99525.19;;;19.29;32.92
44825;BME280;30542;47.928;2.138;2023-12-04T01:44:07;99540.94;;;19.31;33.09
44825;BME280;30542;47.928;2.138;2023-12-04T01:49:08;99544.63;;;19.35;32.82
44825;BME280;30542;47.928;2.138;2023-12-04T01:54:08;99555.00;;;19.42;32.59
44825;BME280;30542;47.928;2.138;2023-12-04T01:59:09;99553.88;;;19.48;32.80
44825;BME280;30542;47.928;2.138;2023-12-04T02:04:09;99543.13;;;19.58;32.58
44825;BME280;30542;47.928;2.138;2023-12-04T02:09:10;99550.59;;;19.66;32.31
44825;BME280;30542;47.928;2.138;2023-12-04T02:14:12;99564.94;;;19.75;32.52
44825;BME280;30542;47.928;2.138;2023-12-04T02:19:13;99560.84;;;19.83;32.46
44825;BME280;30542;47.928;2.138;2023-12-04T02:24:13;99547.69;;;19.92;32.35
44825;BME280;30542;47.928;2.138;2023-12-04T02:29:19;99534.25;;;19.97;32.53
44825;BME280;30542;47.928;2.138;2023-12-04T02:34:22;99525.34;;;20.06;32.31
44825;BME280;30542;47.928;2.138;2023-12-04T02:39:24;99515.41;;;20.12;32.08
44825;BME280;30542;47.928;2.138;2023-12-04T02:44:24;99502.28;;;20.16;32.45
44825;BME280;30542;47.928;2.138;2023-12-04T02:49:25;99498.16;;;20.23;32.15
44825;BME280;30542;47.928;2.138;2023-12-04T02:54:25;99490.59;;;20.30;32.05
44825;BME280;30542;47.928;2.138;2023-12-04T02:59:25;99479.03;;;20.35;32.04
44825;BME280;30542;47.928;2.138;2023-12-04T03:04:28;99455.19;;;20.39;32.13
44825;BME280;30542;47.928;2.138;2023-12-04T03:09:29;99445.50;;;20.43;31.88
44825;BME280;30542;47.928;2.138;2023-12-04T03:14:30;99431.81;;;20.44;32.00
44825;BME280;30542;47.928;2.138;2023-12-04T03:19:30;99437.97;;;20.50;31.98
44825;BME280;30542;47.928;2.138;2023-12-04T03:24:30;99421.13;;;20.49;31.95
44825;BME280;30542;47.928;2.138;2023-12-04T03:29:30;99411.91;;;20.55;32.05
44825;BME280;30542;47.928;2.138;2023-12-04T03:34:31;99411.34;;;20.58;32.08
44825;BME280;30542;47.928;2.138;2023-12-04T03:39:31;99396.31;;;20.63;31.83
44825;BME280;30542;47.928;2.138;2023-12-04T03:44:31;99381.84;;;20.64;31.95
44825;BME280;30542;47.928;2.138;2023-12-04T03:49:32;99395.78;;;20.60;32.05
44825;BME280;30542;47.928;2.138;2023-12-04T03:54:32;99394.34;;;20.68;32.04
44825;BME280;30542;47.928;2.138;2023-12-04T03:59:32;99384.94;;;20.71;31.79
44825;BME280;30542;47.928;2.138;2023-12-04T04:04:32;99380.38;;;20.71;32.10
44825;BME280;30542;47.928;2.138;2023-12-04T04:09:33;99371.78;;;20.74;32.06
44825;BME280;30542;47.928;2.138;2023-12-04T04:14:33;99354.63;;;20.75;31.98
44825;BME280;30542;47.928;2.138;2023-12-04T04:19:33;99344.22;;;20.74;32.16
44825;BME280;30542;47.928;2.138;2023-12-04T04:24:34;99328.88;;;20.79;32.53
44825;BME280;30542;47.928;2.138;2023-12-04T04:29:34;99330.47;;;20.80;32.12
44825;BME280;30542;47.928;2.138;2023-12-04T04:34:34;99328.56;;;20.81;32.30
44825;BME280;30542;47.928;2.138;2023-12-04T04:39:35;99325.63;;;20.82;32.18
44825;BME280;30542;47.928;2.138;2023-12-04T04:44:35;99323.44;;;20.84;32.14
44825;BME280;30542;47.928;2.138;2023-12-04T04:49:35;99297.97;;;20.87;32.40
44825;BME280;30542;47.928;2.138;2023-12-04T04:54:35;99264.06;;;20.82;32.25
44825;BME280;30542;47.928;2.138;2023-12-04T04:59:36;99266.66;;;20.88;32.12
44825;BME280;30542;47.928;2.138;2023-12-04T05:04:36;99261.78;;;20.90;32.25
44825;BME280;30542;47.928;2.138;2023-12-04T05:09:36;99258.03;;;20.91;32.36
44825;BME280;30542;47.928;2.138;2023-12-04T05:14:37;99249.69;;;20.92;32.35
44825;BME280;30542;47.928;2.138;2023-12-04T05:19:37;99236.31;;;20.92;32.25
44825;BME280;30542;47.928;2.138;2023-12-04T05:24:37;99235.22;;;20.93;32.22
44825;BME280;30542;47.928;2.138;2023-12-04T05:29:37;99216.59;;;20.88;32.39
44825;BME280;30542;47.928;2.138;2023-12-04T05:34:38;99212.44;;;20.96;32.40
44825;BME280;30542;47.928;2.138;2023-12-04T05:39:38;99192.91;;;20.95;32.47
44825;BME280;30542;47.928;2.138;2023-12-04T05:44:38;99199.84;;;20.96;32.33
44825;BME280;30542;47.928;2.138;2023-12-04T05:49:39;99184.88;;;20.95;32.48
44825;BME280;30542;47.928;2.138;2023-12-04T05:54:39;99173.84;;;20.97;32.57
44825;BME280;30542;47.928;2.138;2023-12-04T05:59:39;99165.81;;;20.97;32.54
44825;BME280;30542;47.928;2.138;2023-12-04T06:04:40;99158.09;;;20.95;32.72
44825;BME280;30542;47.928;2.138;2023-12-04T06:09:40;99162.66;;;20.95;32.72
44825;BME280;30542;47.928;2.138;2023-12-04T06:14:40;99171.97;;;20.97;32.64
44825;BME280;30542;47.928;2.138;2023-12-04T06:19:40;99157.78;;;20.97;32.66
44825;BME280;30542;47.928;2.138;2023-12-04T06:24:41;99170.88;;;20.98;32.77
44825;BME280;30542;47.928;2.138;2023-12-04T06:29:43;99135.41;;;20.93;32.74
44825;BME280;30542;47.928;2.138;2023-12-04T06:34:44;99146.00;;;20.98;32.76
44825;BME280;30542;47.928;2.138;2023-12-04T06:39:45;99136.06;;;20.98;32.53
44825;BME280;30542;47.928;2.138;2023-12-04T06:44:48;99136.59;;;21.00;32.93
44825;BME280;30542;47.928;2.138;2023-12-04T06:49:48;99120.22;;;21.02;32.84
44825;BME280;30542;47.928;2.138;2023-12-04T06:54:49;99103.34;;;21.01;33.10
44825;BME280;30542;47.928;2.138;2023-12-04T06:59:50;99120.22;;;21.02;33.19
44825;BME280;30542;47.928;2.138;2023-12-04T07:04:50;99122.09;;;21.01;33.47
44825;BME280;30542;47.928;2.138;2023-12-04T07:09:50;99119.94;;;21.03;33.45
44825;BME280;30542;47.928;2.138;2023-12-04T07:14:51;99115.84;;;21.06;34.07
44825;BME280;30542;47.928;2.138;2023-12-04T07:19:51;99112.88;;;21.07;34.26
44825;BME280;30542;47.928;2.138;2023-12-04T07:24:52;99106.75;;;21.07;35.03
44825;BME280;30542;47.928;2.138;2023-12-04T07:29:53;99121.91;;;21.12;35.63
44825;BME280;30542;47.928;2.138;2023-12-04T07:34:53;99101.28;;;21.12;36.24
44825;BME280;30542;47.928;2.138;2023-12-04T07:39:53;99101.75;;;21.14;36.67
44825;BME280;30542;47.928;2.138;2023-12-04T07:44:54;99089.78;;;21.12;36.52
44825;BME280;30542;47.928;2.138;2023-12-04T07:49:54;99083.31;;;21.13;36.80
44825;BME280;30542;47.928;2.138;2023-12-04T07:54:55;99065.56;;;21.17;36.89
44825;BME280;30542;47.928;2.138;2023-12-04T07:59:55;99055.16;;;21.15;36.91
44825;BME280;30542;47.928;2.138;2023-12-04T08:04:55;99040.94;;;21.15;36.76
44825;BME280;30542;47.928;2.138;2023-12-04T08:09:56;99036.09;;;21.17;36.56
44825;BME280;30542;47.928;2.138;2023-12-04T08:14:56;99030.94;;;21.20;36.68
44825;BME280;30542;47.928;2.138;2023-12-04T08:19:57;99040.28;;;21.09;36.39
44825;BME280;30542;47.928;2.138;2023-12-04T08:24:57;99023.31;;;20.08;35.32
44825;BME280;30542;47.928;2.138;2023-12-04T08:30:01;99047.72;;;18.99;34.90
44825;BME280;30542;47.928;2.138;2023-12-04T08:35:03;99037.13;;;18.75;35.57
44825;BME280;30542;47.928;2.138;2023-12-04T08:40:06;99041.88;;;18.97;36.53
44825;BME280;30542;47.928;2.138;2023-12-04T08:45:09;99034.31;;;19.23;37.39
44825;BME280;30542;47.928;2.138;2023-12-04T08:50:09;99043.53;;;19.49;37.60
44825;BME280;30542;47.928;2.138;2023-12-04T08:55:10;99026.59;;;19.73;38.44
44825;BME280;30542;47.928;2.138;2023-12-04T09:00:10;99011.53;;;19.96;38.54
44825;BME280;30542;47.928;2.138;2023-12-04T09:05:11;99006.69;;;20.11;38.40
44825;BME280;30542;47.928;2.138;2023-12-04T09:10:12;98996.00;;;20.25;38.39
44825;BME280;30542;47.928;2.138;2023-12-04T09:15:12;98983.91;;;20.42;38.74
44825;BME280;30542;47.928;2.138;2023-12-04T09:20:12;98968.34;;;20.57;39.19
44825;BME280;30542;47.928;2.138;2023-12-04T09:25:13;98971.91;;;20.67;39.64
44825;BME280;30542;47.928;2.138;2023-12-04T09:30:13;98969.63;;;20.74;39.60
44825;BME280;30542;47.928;2.138;2023-12-04T09:35:13;98952.94;;;20.77;39.87
44825;BME280;30542;47.928;2.138;2023-12-04T09:40:15;98956.31;;;20.82;40.17
44825;BME280;30542;47.928;2.138;2023-12-04T09:45:15;98954.81;;;20.90;40.82
44825;BME280;30542;47.928;2.138;2023-12-04T09:50:18;98924.91;;;20.97;41.14
44825;BME280;30542;47.928;2.138;2023-12-04T09:55:21;98929.06;;;21.03;40.58
44825;BME280;30542;47.928;2.138;2023-12-04T10:00:23;98908.06;;;20.96;39.64
44825;BME280;30542;47.928;2.138;2023-12-04T10:05:23;98921.03;;;21.03;38.54
44825;BME280;30542;47.928;2.138;2023-12-04T10:10:24;98900.41;;;21.03;38.55
44825;BME280;30542;47.928;2.138;2023-12-04T10:15:24;98891.28;;;21.04;38.08
44825;BME280;30542;47.928;2.138;2023-12-04T10:20:25;98886.09;;;21.08;38.45
44825;BME280;30542;47.928;2.138;2023-12-04T10:25:28;98872.41;;;21.09;38.63
44825;BME280;30542;47.928;2.138;2023-12-04T10:30:29;98854.16;;;21.12;38.67
44825;BME280;30542;47.928;2.138;2023-12-04T10:35:32;98842.81;;;21.15;38.48
44825;BME280;30542;47.928;2.138;2023-12-04T10:40:35;98819.53;;;21.15;38.49
44825;BME280;30542;47.928;2.138;2023-12-04T10:45:36;98818.91;;;21.18;38.50
44825;BME280;30542;47.928;2.138;2023-12-04T10:50:39;98792.31;;;21.22;38.27
44825;BME280;30542;47.928;2.138;2023-12-04T10:55:41;98787.72;;;21.22;38.32
44825;BME280;30542;47.928;2.138;2023-12-04T11:00:48;98771.22;;;21.29;38.13
44825;BME280;30542;47.928;2.138;2023-12-04T11:05:53;98764.31;;;21.28;38.29
44825;BME280;30542;47.928;2.138;2023-12-04T11:11:05;98760.97;;;21.31;38.18
44825;BME280;30542;47.928;2.138;2023-12-04T11:21:15;98738.66;;;21.35;38.05
44825;BME280;30542;47.928;2.138;2023-12-04T11:26:18;98743.22;;;21.35;37.90
44825;BME280;30542;47.928;2.138;2023-12-04T11:31:18;98730.94;;;21.34;38.08
44825;BME280;30542;47.928;2.138;2023-12-04T11:36:21;98718.13;;;21.31;38.09
44825;BME280;30542;47.928;2.138;2023-12-04T11:41:23;98711.72;;;21.32;38.15
44825;BME280;30542;47.928;2.138;2023-12-04T11:46:25;98710.09;;;21.31;38.09
44825;BME280;30542;47.928;2.138;2023-12-04T11:56:38;98692.78;;;21.28;38.01
44825;BME280;30542;47.928;2.138;2023-12-04T12:01:39;98680.81;;;21.26;38.01
44825;BME280;30542;47.928;2.138;2023-12-04T12:06:43;98676.56;;;21.25;37.84
44825;BME280;30542;47.928;2.138;2023-12-04T12:11:44;98671.50;;;21.23;38.11
44825;BME280;30542;47.928;2.138;2023-12-04T12:16:44;98659.22;;;21.22;38.19
44825;BME280;30542;47.928;2.138;2023-12-04T12:21:46;98660.00;;;21.23;38.09
44825;BME280;30542;47.928;2.138;2023-12-04T12:26:49;98653.06;;;21.22;38.09
44825;BME280;30542;47.928;2.138;2023-12-04T12:31:50;98640.47;;;21.22;38.21
44825;BME280;30542;47.928;2.138;2023-12-04T12:36:51;98637.31;;;21.20;38.21
44825;BME280;30542;47.928;2.138;2023-12-04T12:41:51;98621.56;;;21.19;38.15
44825;BME280;30542;47.928;2.138;2023-12-04T12:46:51;98623.16;;;21.20;38.33
44825;BME280;30542;47.928;2.138;2023-12-04T12:51:54;98613.84;;;21.26;38.90
44825;BME280;30542;47.928;2.138;2023-12-04T12:56:55;98611.19;;;21.26;39.40
44825;BME280;30542;47.928;2.138;2023-12-04T13:01:56;98602.69;;;21.24;39.88
44825;BME280;30542;47.928;2.138;2023-12-04T13:06:56;98603.75;;;21.23;40.25
44825;BME280;30542;47.928;2.138;2023-12-04T13:11:57;98607.09;;;21.20;40.53
44825;BME280;30542;47.928;2.138;2023-12-04T13:16:57;98592.09;;;21.19;41.05
44825;BME280;30542;47.928;2.138;2023-12-04T13:21:57;98583.63;;;21.17;41.20
44825;BME280;30542;47.928;2.138;2023-12-04T13:26:58;98589.44;;;21.19;41.29
44825;BME280;30542;47.928;2.138;2023-12-04T13:31:58;98579.53;;;21.19;41.59
44825;BME280;30542;47.928;2.138;2023-12-04T13:36:59;98566.75;;;21.16;41.62
44825;BME280;30542;47.928;2.138;2023-12-04T13:41:59;98558.06;;;21.10;41.86
44825;BME280;30542;47.928;2.138;2023-12-04T13:47:18;98567.38;;;21.13;41.79
44825;BME280;30542;47.928;2.138;2023-12-04T13:52:18;98569.28;;;21.13;41.95
44825;BME280;30542;47.928;2.138;2023-12-04T13:57:22;98566.59;;;21.13;42.14
44825;BME280;30542;47.928;2.138;2023-12-04T14:02:32;98556.69;;;21.13;42.16
44825;BME280;30542;47.928;2.138;2023-12-04T14:07:35;98564.72;;;21.13;41.99
44825;BME280;30542;47.928;2.138;2023-12-04T14:12:36;98530.34;;;20.98;42.15
44825;BME280;30542;47.928;2.138;2023-12-04T14:17:36;98549.13;;;21.15;42.01
44825;BME280;30542;47.928;2.138;2023-12-04T14:22:42;98540.94;;;21.12;42.00
44825;BME280;30542;47.928;2.138;2023-12-04T14:27:42;98548.31;;;21.15;42.13
44825;BME280;30542;47.928;2.138;2023-12-04T14:32:45;98544.06;;;21.14;41.96
44825;BME280;30542;47.928;2.138;2023-12-04T14:37:45;98540.28;;;21.15;41.87
44825;BME280;30542;47.928;2.138;2023-12-04T14:42:45;98554.78;;;21.14;41.98
44825;BME280;30542;47.928;2.138;2023-12-04T14:47:46;98540.59;;;21.04;41.99
44825;BME280;30542;47.928;2.138;2023-12-04T14:52:48;98541.22;;;21.10;41.80
44825;BME280;30542;47.928;2.138;2023-12-04T14:57:51;98533.03;;;21.06;42.20
44825;BME280;30542;47.928;2.138;2023-12-04T15:03:06;98542.84;;;21.11;42.10
44825;BME280;30542;47.928;2.138;2023-12-04T15:08:27;98532.75;;;21.08;41.96
44825;BME280;30542;47.928;2.138;2023-12-04T15:13:45;98529.75;;;21.09;42.01
44825;BME280;30542;47.928;2.138;2023-12-04T15:19:00;98536.66;;;21.10;41.99
44825;BME280;30542;47.928;2.138;2023-12-04T15:24:27;98548.66;;;21.13;41.90
44825;BME280;30542;47.928;2.138;2023-12-04T15:29:27;98534.16;;;21.14;41.91
44825;BME280;30542;47.928;2.138;2023-12-04T15:34:27;98545.19;;;21.13;41.97
44825;BME280;30542;47.928;2.138;2023-12-04T15:39:27;98536.19;;;21.08;41.84
44825;BME280;30542;47.928;2.138;2023-12-04T15:44:28;98542.84;;;21.11;41.91
44825;BME280;30542;47.928;2.138;2023-12-04T15:49:28;98537.00;;;21.09;41.97
44825;BME280;30542;47.928;2.138;2023-12-04T15:54:28;98528.16;;;21.08;42.14
44825;BME280;30542;47.928;2.138;2023-12-04T15:59:32;98532.75;;;21.08;41.77
44825;BME280;30542;47.928;2.138;2023-12-04T16:04:32;98525.16;;;21.10;41.99
44825;BME280;30542;47.928;2.138;2023-12-04T16:09:32;98525.94;;;21.10;41.83
44825;BME280;30542;47.928;2.138;2023-12-04T16:14:33;98532.13;;;21.11;41.93
44825;BME280;30542;47.928;2.138;2023-12-04T16:19:33;98512.13;;;21.08;41.79
44825;BME280;30542;47.928;2.138;2023-12-04T16:24:34;98516.34;;;21.09;41.90
44825;BME280;30542;47.928;2.138;2023-12-04T16:29:34;98523.28;;;21.10;41.86
44825;BME280;30542;47.928;2.138;2023-12-04T16:34:35;98520.94;;;21.09;41.79
44825;BME280;30542;47.928;2.138;2023-12-04T16:39:35;98520.94;;;21.09;41.93
44825;BME280;30542;47.928;2.138;2023-12-04T16:44:35;98527.06;;;21.09;41.87
44825;BME280;30542;47.928;2.138;2023-12-04T16:49:36;98533.19;;;21.10;41.77
44825;BME280;30542;47.928;2.138;2023-12-04T16:54:36;98539.34;;;21.10;41.80
44825;BME280;30542;47.928;2.138;2023-12-04T16:59:37;98544.69;;;21.10;41.96
44825;BME280;30542;47.928;2.138;2023-12-04T17:04:38;98559.97;;;21.10;41.84
44825;BME280;30542;47.928;2.138;2023-12-04T17:09:38;98554.31;;;21.12;41.84
44825;BME280;30542;47.928;2.138;2023-12-04T17:14:39;98562.34;;;21.12;41.31
44825;BME280;30542;47.928;2.138;2023-12-04T17:19:40;98566.28;;;21.14;41.74
44825;BME280;30542;47.928;2.138;2023-12-04T17:24:41;98585.00;;;21.14;41.68
44825;BME280;30542;47.928;2.138;2023-12-04T17:29:41;98604.53;;;21.15;41.83
44825;BME280;30542;47.928;2.138;2023-12-04T17:34:41;98601.06;;;21.14;41.81
44825;BME280;30542;47.928;2.138;2023-12-04T17:39:43;98609.91;;;21.15;41.78
44825;BME280;30542;47.928;2.138;2023-12-04T17:44:43;98611.50;;;21.16;41.79
44825;BME280;30542;47.928;2.138;2023-12-04T17:49:43;98631.19;;;21.20;41.82
44825;BME280;30542;47.928;2.138;2023-12-04T17:54:44;98637.31;;;21.20;42.04
44825;BME280;30542;47.928;2.138;2023-12-04T17:59:44;98651.50;;;21.21;42.14
44825;BME280;30542;47.928;2.138;2023-12-04T18:04:44;98646.59;;;21.23;42.45
44825;BME280;30542;47.928;2.138;2023-12-04T18:09:45;98659.69;;;21.24;42.54
44825;BME280;30542;47.928;2.138;2023-12-04T18:14:45;98665.53;;;21.26;42.88
44825;BME280;30542;47.928;2.138;2023-12-04T18:19:45;98677.81;;;21.27;43.13
44825;BME280;30542;47.928;2.138;2023-12-04T18:24:46;98693.56;;;21.29;43.53
44825;BME280;30542;47.928;2.138;2023-12-04T18:29:47;98690.09;;;21.28;43.77
44825;BME280;30542;47.928;2.138;2023-12-04T18:34:47;98692.47;;;21.30;43.99
44825;BME280;30542;47.928;2.138;2023-12-04T18:39:50;98692.28;;;21.26;44.19
44825;BME280;30542;47.928;2.138;2023-12-04T18:44:50;98710.75;;;21.28;44.19
44825;BME280;30542;47.928;2.138;2023-12-04T18:49:51;98719.25;;;21.30;44.13
44825;BME280;30542;47.928;2.138;2023-12-04T18:54:56;98729.16;;;21.29;43.95
44825;BME280;30542;47.928;2.138;2023-12-04T18:59:56;98731.06;;;21.29;44.32
44825;BME280;30542;47.928;2.138;2023-12-04T19:04:56;98741.59;;;21.25;44.17
44825;BME280;30542;47.928;2.138;2023-12-04T19:09:57;98748.34;;;21.23;44.13
44825;BME280;30542;47.928;2.138;2023-12-04T19:14:57;98760.19;;;21.22;44.04
44825;BME280;30542;47.928;2.138;2023-12-04T19:19:57;98770.41;;;21.20;43.79
44825;BME280;30542;47.928;2.138;2023-12-04T19:24:58;98775.78;;;21.20;43.90
44825;BME280;30542;47.928;2.138;2023-12-04T19:29:58;98782.19;;;21.19;43.73
44825;BME280;30542;47.928;2.138;2023-12-04T19:34:58;98779.06;;;21.17;43.63
44825;BME280;30542;47.928;2.138;2023-12-04T19:39:59;98798.28;;;21.19;43.41
44825;BME280;30542;47.928;2.138;2023-12-04T19:44:59;98789.78;;;21.17;43.39
44825;BME280;30542;47.928;2.138;2023-12-04T19:49:59;98807.72;;;21.16;43.14
44825;BME280;30542;47.928;2.138;2023-12-04T19:55:00;98818.44;;;21.16;43.32
44825;BME280;30542;47.928;2.138;2023-12-04T20:00:00;98822.88;;;21.21;43.02
44825;BME280;30542;47.928;2.138;2023-12-04T20:05:03;98825.22;;;21.22;42.83
44825;BME280;30542;47.928;2.138;2023-12-04T20:10:04;98839.41;;;21.23;42.83
44825;BME280;30542;47.928;2.138;2023-12-04T20:15:07;98841.28;;;21.22;42.78
44825;BME280;30542;47.928;2.138;2023-12-04T20:20:09;98833.06;;;21.19;42.71
44825;BME280;30542;47.928;2.138;2023-12-04T20:25:10;98851.22;;;21.22;42.77
44825;BME280;30542;47.928;2.138;2023-12-04T20:30:10;98861.91;;;21.22;42.53
44825;BME280;30542;47.928;2.138;2023-12-04T20:35:11;98860.03;;;21.22;42.28
44825;BME280;30542;47.928;2.138;2023-12-04T20:40:11;98868.84;;;21.23;42.20
44825;BME280;30542;47.928;2.138;2023-12-04T20:45:12;98869.63;;;21.23;42.12
44825;BME280;30542;47.928;2.138;2023-12-04T20:50:12;98875.81;;;21.24;41.92
44825;BME280;30542;47.928;2.138;2023-12-04T20:55:13;98883.53;;;21.25;42.09
44825;BME280;30542;47.928;2.138;2023-12-04T21:00:13;98883.34;;;21.22;41.69
44825;BME280;30542;47.928;2.138;2023-12-04T21:05:14;98908.91;;;21.28;41.63
44825;BME280;30542;47.928;2.138;2023-12-04T21:10:14;98918.03;;;21.27;41.50
44825;BME280;30542;47.928;2.138;2023-12-04T21:15:15;98903.06;;;21.26;41.67
44825;BME280;30542;47.928;2.138;2023-12-04T21:20:15;98929.84;;;21.26;41.60
44825;BME280;30542;47.928;2.138;2023-12-04T21:25:16;98926.84;;;21.27;41.39
44825;BME280;30542;47.928;2.138;2023-12-04T21:30:16;98933.00;;;21.28;41.34
44825;BME280;30542;47.928;2.138;2023-12-04T21:35:16;98957.91;;;21.28;41.25
44825;BME280;30542;47.928;2.138;2023-12-04T21:40:17;98957.91;;;21.28;41.32
44825;BME280;30542;47.928;2.138;2023-12-04T21:45:18;98961.66;;;21.27;41.21
44825;BME280;30542;47.928;2.138;2023-12-04T21:50:18;98970.78;;;21.26;41.19
44825;BME280;30542;47.928;2.138;2023-12-04T21:55:19;98978.03;;;21.26;41.07
44825;BME280;30542;47.928;2.138;2023-12-04T22:00:19;98988.28;;;21.24;40.91
44825;BME280;30542;47.928;2.138;2023-12-04T22:05:20;98991.38;;;21.17;41.25
44825;BME280;30542;47.928;2.138;2023-12-04T22:10:21;98994.47;;;21.10;40.94
44825;BME280;30542;47.928;2.138;2023-12-04T22:15:21;99013.31;;;21.05;41.11
44825;BME280;30542;47.928;2.138;2023-12-04T22:20:22;99020.69;;;21.00;41.17
44825;BME280;30542;47.928;2.138;2023-12-04T22:25:22;99018.59;;;20.97;40.80
44825;BME280;30542;47.928;2.138;2023-12-04T22:30:23;99022.19;;;20.92;41.19
44825;BME280;30542;47.928;2.138;2023-12-04T22:35:23;99032.69;;;20.89;41.20
44825;BME280;30542;47.928;2.138;2023-12-04T22:40:23;99033.59;;;20.84;41.14
44825;BME280;30542;47.928;2.138;2023-12-04T22:45:24;99023.50;;;20.81;41.12
44825;BME280;30542;47.928;2.138;2023-12-04T22:50:24;99039.34;;;20.77;41.17
44825;BME280;30542;47.928;2.138;2023-12-04T22:55:24;99042.94;;;20.73;41.13
44825;BME280;30542;47.928;2.138;2023-12-04T23:00:25;99043.56;;;20.70;40.98
44825;BME280;30542;47.928;2.138;2023-12-04T23:05:25;99041.75;;;20.65;41.13
44825;BME280;30542;47.928;2.138;2023-12-04T23:10:25;99042.66;;;20.60;41.21
44825;BME280;30542;47.928;2.138;2023-12-04T23:15:26;99046.72;;;20.58;41.36
44825;BME280;30542;47.928;2.138;2023-12-04T23:20:26;99047.31;;;20.55;40.96
44825;BME280;30542;47.928;2.138;2023-12-04T23:25:26;99060.00;;;20.49;41.33
44825;BME280;30542;47.928;2.138;2023-12-04T23:30:27;99072.06;;;20.47;41.16
44825;BME280;30542;47.928;2.138;2023-12-04T23:35:27;99088.69;;;20.44;41.33
44825;BME280;30542;47.928;2.138;2023-12-04T23:40:27;99083.94;;;20.41;41.50
44825;BME280;30542;47.928;2.138;2023-12-04T23:45:28;99085.31;;;20.38;41.85
44825;BME280;30542;47.928;2.138;2023-12-04T23:50:28;99078.66;;;20.35;41.37
44825;BME280;30542;47.928;2.138;2023-12-04T23:55:28;99101.16;;;20.34;41.33
